Time;durP1;ratioP1;P1;durP2;ratioP2;P2;SDS_P1;SDS_P2;PMS_P1;PMS_P2;Temp;Humidity;BMP_temperature;BMP_pressure;BME280_temperature;BME280_humidity;BME280_pressure;Samples;Min_cycle;Max_cycle;Signal;HPM_P1;HPM_P2
2022/06/06 00:08:14;;;;;;;3.83;3.03;;;;;;;17.57;93.24;100544.56;20903196;28;20075;-77
2022/06/06 00:18:15;;;;;;;3.63;3.33;;;;;;;17.49;93.46;100539.88;20886167;28;20049;-77
2022/06/06 00:28:17;;;;;;;3.13;2.83;;;;;;;17.49;93.42;100539.88;20875043;28;20060;-77
2022/06/06 00:38:19;;;;;;;3.35;3.05;;;;;;;17.51;93.61;100545.13;20828456;28;20060;-77
2022/06/06 00:48:25;;;;;;;2.92;2.67;;;;;;;17.57;93.49;100555.31;20798443;28;20046;-77
2022/06/06 00:58:28;;;;;;;3.08;2.80;;;;;;;17.57;93.37;100562.53;20778978;28;20505;-77
2022/06/06 01:08:30;;;;;;;3.05;2.85;;;;;;;17.51;93.50;100554.03;20793955;28;20498;-77
2022/06/06 01:18:38;;;;;;;3.00;2.80;;;;;;;17.54;93.48;100585.22;20768881;28;20058;-77
2022/06/06 01:28:57;;;;;;;2.95;2.65;;;;;;;17.54;93.76;100577.97;20805425;28;20407;-77
2022/06/06 01:39:03;;;;;;;2.95;2.75;;;;;;;17.54;93.38;100587.91;20883376;28;20049;-76
2022/06/06 01:49:06;;;;;;;2.60;2.40;;;;;;;17.54;93.65;100609.44;20821882;28;20429;-77
2022/06/06 01:59:08;;;;;;;2.65;2.45;;;;;;;17.53;93.64;100626.59;20781474;28;20490;-77
2022/06/06 02:09:09;;;;;;;2.22;2.10;;;;;;;17.46;93.53;100604.75;20799781;28;20045;-77
2022/06/06 02:19:11;;;;;;;2.38;2.17;;;;;;;17.52;93.41;100625.72;20805737;28;20046;-77
2022/06/06 02:29:13;;;;;;;2.30;2.10;;;;;;;17.49;93.59;100627.84;20777160;28;20038;-77
2022/06/06 02:39:14;;;;;;;2.00;1.90;;;;;;;17.51;93.40;100653.63;20788650;28;20060;-77
2022/06/06 02:49:16;;;;;;;2.25;2.05;;;;;;;17.46;93.39;100658.59;20795693;28;20537;-77
2022/06/06 02:59:20;;;;;;;2.00;1.90;;;;;;;17.50;93.19;100660.00;20773320;28;20390;-77
2022/06/06 03:09:47;;;;;;;1.90;1.80;;;;;;;17.51;93.29;100677.84;20800624;28;20056;-77
2022/06/06 03:30:27;;;;;;;2.50;2.28;;;;;;;17.49;93.19;100687.91;20830378;28;20050;-77
2022/06/06 03:40:33;;;;;;;2.17;2.00;;;;;;;17.50;93.28;100716.50;20813186;28;20056;-77
2022/06/06 03:50:42;;;;;;;;;;;;;;;17.49;93.27;100708.59;20822217;28;20490;-76
2022/06/06 04:00:45;;;;;;;2.40;2.15;;;;;;;17.49;93.12;100716.69;20879968;28;19925;-77
2022/06/06 04:10:53;;;;;;;2.50;2.30;;;;;;;17.48;93.15;100707.72;20795311;28;20115;-77
2022/06/06 04:21:23;;;;;;;2.08;1.92;;;;;;;17.47;93.01;100716.78;20792548;28;20103;-77
2022/06/06 04:31:47;;;;;;;2.20;2.00;;;;;;;17.48;92.93;100723.88;20819286;28;20160;-76
2022/06/06 04:41:55;;;;;;;2.13;1.92;;;;;;;17.41;92.77;100722.72;20874875;28;20128;-76
2022/06/06 04:51:58;;;;;;;2.00;1.80;;;;;;;17.47;92.57;100727.56;20867632;28;20098;-77
2022/06/06 05:02:02;;;;;;;2.35;2.03;;;;;;;17.47;92.50;100730.25;20865413;28;20051;-77
2022/06/06 05:12:41;;;;;;;2.08;1.88;;;;;;;17.45;92.44;100734.94;20810752;28;20052;-77
2022/06/06 05:22:59;;;;;;;2.30;2.10;;;;;;;17.45;92.36;100745.69;20772297;28;20053;-77
2022/06/06 05:33:24;;;;;;;2.40;2.10;;;;;;;17.46;92.22;100754.63;20824153;28;20061;-77
2022/06/06 05:43:29;;;;;;;;;;;;;;;17.46;91.91;100773.47;20744956;28;20056;-77
2022/06/06 05:53:49;;;;;;;2.75;2.40;;;;;;;17.44;91.87;100776.28;20796420;28;20374;-77
2022/06/06 06:04:04;;;;;;;2.38;2.15;;;;;;;17.38;91.85;100755.31;20823574;28;20522;-77
2022/06/06 06:14:33;;;;;;;2.80;2.50;;;;;;;17.44;91.95;100792.44;20902653;28;20413;-77
2022/06/06 06:24:38;;;;;;;2.50;2.30;;;;;;;17.24;91.71;100769.97;20895127;28;20049;-77
2022/06/06 06:35:02;;;;;;;2.72;2.53;;;;;;;17.44;91.59;100813.97;20831950;28;20063;-76
2022/06/06 06:45:12;;;;;;;2.63;2.43;;;;;;;17.27;91.40;100785.84;20830724;28;20056;-77
2022/06/06 06:55:30;;;;;;;2.92;2.40;;;;;;;17.44;91.13;100823.84;20898570;28;20051;-77
2022/06/06 07:16:24;;;;;;;2.60;2.33;;;;;;;17.46;90.55;100814.66;20800915;28;20068;-76
2022/06/06 07:26:26;;;;;;;5.47;2.83;;;;;;;17.49;91.03;100827.84;20858226;28;20489;-78
2022/06/06 07:36:40;;;;;;;5.25;2.92;;;;;;;17.58;91.48;100830.72;20819601;28;20304;-77
2022/06/06 07:47:07;;;;;;;4.00;2.83;;;;;;;17.56;91.34;100819.25;20772008;28;20045;-77
2022/06/06 07:57:43;;;;;;;4.25;2.92;;;;;;;17.62;91.23;100840.22;20773376;28;20041;-77
2022/06/06 08:07:51;;;;;;;3.50;2.73;;;;;;;17.61;90.78;100847.47;20791697;28;20057;-76
2022/06/06 08:18:24;;;;;;;3.92;2.80;;;;;;;17.63;89.54;100845.47;20849155;28;20525;-77
2022/06/06 08:28:26;;;;;;;6.78;3.55;;;;;;;17.73;89.90;100834.75;20822289;28;20053;-76
2022/06/06 08:38:34;;;;;;;4.10;2.88;;;;;;;17.75;90.28;100845.38;20877923;28;20460;-76
2022/06/06 08:49:02;;;;;;;5.43;3.30;;;;;;;17.77;90.38;100836.19;20798987;28;20067;-78
2022/06/06 08:59:19;;;;;;;6.20;3.20;;;;;;;17.83;90.09;100824.00;20816574;28;20056;-76
2022/06/06 09:09:31;;;;;;;3.45;2.63;;;;;;;17.87;88.78;100830.81;20768737;28;20044;-77
2022/06/06 09:19:48;;;;;;;5.25;2.65;;;;;;;17.95;87.54;100844.47;20767960;28;20136;-77
2022/06/06 09:30:20;;;;;;;4.10;2.30;;;;;;;17.98;86.36;100854.97;20837942;28;20053;-76
2022/06/06 09:41:03;;;;;;;4.45;2.47;;;;;;;18.00;85.81;100854.78;20783833;28;20560;-77
2022/06/06 09:51:29;;;;;;;2.25;1.95;;;;;;;17.96;85.54;100861.44;20837676;28;20444;-76
2022/06/06 10:02:08;;;;;;;3.08;2.10;;;;;;;17.93;85.99;100841.06;20837642;28;20059;-77
2022/06/06 10:12:20;;;;;;;2.33;1.80;;;;;;;17.95;86.57;100849.84;20842348;28;20053;-78
2022/06/06 10:22:30;;;;;;;2.90;1.95;;;;;;;17.98;86.95;100871.13;20841810;28;20174;-78
2022/06/06 10:32:46;;;;;;;2.40;1.60;;;;;;;17.87;86.82;100846.97;20834965;28;20057;-78
2022/06/06 10:43:33;;;;;;;1.95;1.30;;;;;;;18.01;86.21;100870.00;20840231;28;20448;-76
2022/06/06 10:54:04;;;;;;;1.40;1.30;;;;;;;17.98;85.87;100881.03;20854840;28;20041;-76
2022/06/06 11:04:27;;;;;;;1.63;1.30;;;;;;;17.93;85.76;100888.66;20746543;28;20518;-77
2022/06/06 11:14:39;;;;;;;2.38;1.50;;;;;;;17.93;85.77;100923.69;20783624;28;20509;-77
2022/06/06 11:24:47;;;;;;;1.48;1.20;;;;;;;17.90;85.77;100916.75;20789916;28;20045;-76
2022/06/06 11:35:21;;;;;;;1.55;1.25;;;;;;;17.86;85.80;100898.28;20809812;28;20040;-76
2022/06/06 11:45:47;;;;;;;1.40;1.30;;;;;;;17.86;85.88;100882.13;20811243;28;20041;-76
2022/06/06 11:56:03;;;;;;;1.42;1.33;;;;;;;17.88;85.72;100890.91;20800340;28;20056;-76
2022/06/06 12:06:16;;;;;;;1.52;1.10;;;;;;;17.87;85.91;100894.59;20805633;28;20091;-76
2022/06/06 12:16:24;;;;;;;1.77;1.00;;;;;;;17.88;85.80;100866.69;20843262;28;20061;-77
2022/06/06 12:26:28;;;;;;;1.02;0.93;;;;;;;17.88;85.69;100866.69;20837119;28;20049;-77
2022/06/06 12:36:43;;;;;;;1.42;0.95;;;;;;;17.85;85.46;100859.72;20837933;28;20572;-76
2022/06/06 12:47:12;;;;;;;1.20;1.13;;;;;;;17.91;85.64;100858.31;20848777;28;20053;-77
2022/06/06 12:57:15;;;;;;;1.33;0.90;;;;;;;17.86;85.38;100849.81;20840911;28;20049;-77
2022/06/06 13:07:35;;;;;;;1.13;0.90;;;;;;;17.91;85.34;100831.38;20814706;28;20098;-77
2022/06/06 13:17:42;;;;;;;0.98;0.90;;;;;;;17.91;85.47;100831.38;20769207;28;20056;-77
2022/06/06 13:27:51;;;;;;;1.58;0.88;;;;;;;17.94;85.80;100821.22;20757016;28;20136;-78
2022/06/06 13:38:10;;;;;;;1.10;0.73;;;;;;;17.96;85.51;100823.75;20801846;28;20053;-76
2022/06/06 13:48:12;;;;;;;1.10;0.60;;;;;;;17.94;84.91;100820.34;20764506;28;20046;-77
2022/06/06 13:58:23;;;;;;;0.60;0.60;;;;;;;17.93;84.58;100830.28;20757948;28;20054;-77
2022/06/06 14:08:24;;;;;;;0.60;0.60;;;;;;;17.93;85.05;100818.63;20766905;28;20138;-77
2022/06/06 14:18:30;;;;;;;0.73;0.63;;;;;;;17.92;85.02;100812.41;20768827;28;20054;-77
2022/06/06 14:28:39;;;;;;;4.45;0.60;;;;;;;17.93;85.85;100807.88;20777552;28;20046;-77
2022/06/06 14:38:41;;;;;;;1.40;0.82;;;;;;;17.98;86.86;100800.22;20844030;28;20057;-77
2022/06/06 14:48:49;;;;;;;1.55;0.80;;;;;;;18.04;87.10;100783.53;20825476;28;20044;-77
2022/06/06 14:58:59;;;;;;;0.95;0.70;;;;;;;18.10;87.24;100774.88;20863207;28;20107;-77
2022/06/06 15:09:06;;;;;;;0.93;0.88;;;;;;;18.17;88.36;100768.94;20796506;28;20091;-77
2022/06/06 15:19:19;;;;;;;3.03;1.55;;;;;;;18.01;89.68;100756.88;20851025;28;20524;-77
2022/06/06 15:29:33;;;;;;;2.35;1.00;;;;;;;18.21;88.92;100794.63;20853039;28;20056;-77
2022/06/06 15:40:16;;;;;;;1.85;0.98;;;;;;;18.16;88.52;100813.06;20854406;28;20053;-77
2022/06/06 15:50:24;;;;;;;1.50;1.00;;;;;;;18.11;88.65;100818.84;20847816;28;20049;-77
2022/06/06 16:00:38;;;;;;;2.00;1.10;;;;;;;18.06;88.79;100829.19;20853407;28;20057;-76
2022/06/06 16:10:40;;;;;;;2.67;1.33;;;;;;;18.00;89.07;100845.88;20850384;28;20052;-76
2022/06/06 16:20:56;;;;;;;1.67;1.05;;;;;;;17.95;89.51;100836.38;20852954;28;20067;-77
2022/06/06 16:30:59;;;;;;;1.38;0.88;;;;;;;17.89;89.38;100822.59;20829957;28;20533;-76
2022/06/06 16:41:13;;;;;;;2.78;0.93;;;;;;;17.90;89.52;100835.06;20805141;28;20561;-77
2022/06/06 16:51:21;;;;;;;1.63;1.00;;;;;;;17.89;89.62;100830.69;20793723;28;20084;-78
2022/06/06 17:01:48;;;;;;;1.98;0.85;;;;;;;17.87;89.75;100836.19;20863893;28;20056;-77
2022/06/06 17:11:56;;;;;;;1.73;0.80;;;;;;;17.85;89.69;100875.88;20798008;28;20497;-78
2022/06/06 17:22:01;;;;;;;1.58;0.80;;;;;;;17.84;89.81;100879.56;20779013;28;20053;-77
2022/06/06 17:32:16;;;;;;;0.82;0.73;;;;;;;17.85;89.74;100891.19;20885039;28;20501;-77
2022/06/06 17:42:29;;;;;;;1.50;1.00;;;;;;;17.83;89.86;100902.09;20884617;28;20099;-78
2022/06/06 17:52:36;;;;;;;1.85;0.70;;;;;;;17.82;89.84;100908.47;20781934;28;20061;-76
2022/06/06 18:03:06;;;;;;;1.17;0.75;;;;;;;17.56;89.48;100873.06;20785403;28;20046;-76
2022/06/06 18:13:27;;;;;;;1.90;0.65;;;;;;;17.71;89.40;100904.03;20783709;28;20049;-76
2022/06/06 18:23:35;;;;;;;0.93;0.80;;;;;;;17.80;89.66;100931.97;20755194;28;20091;-76
2022/06/06 18:33:46;;;;;;;0.75;0.68;;;;;;;17.78;89.40;100926.75;20862044;28;20041;-76
2022/06/06 18:43:48;;;;;;;1.33;0.60;;;;;;;17.70;89.25;100921.19;20859411;28;20042;-77
2022/06/06 18:53:54;;;;;;;1.38;0.70;;;;;;;17.74;89.13;100941.47;20808998;28;20421;-77
2022/06/06 19:04:01;;;;;;;2.80;0.70;;;;;;;17.79;89.34;100958.06;20776464;28;20041;-77
2022/06/06 19:14:25;;;;;;;0.98;0.60;;;;;;;17.78;89.14;100945.59;20794245;28;20046;-77
2022/06/06 19:24:31;;;;;;;1.13;0.70;;;;;;;17.56;89.00;100918.84;20804737;28;21003;-77
2022/06/06 19:34:35;;;;;;;1.17;0.70;;;;;;;17.59;88.73;100923.94;20806880;28;20049;-77
2022/06/06 19:44:39;;;;;;;1.40;0.95;;;;;;;17.64;88.85;100935.16;20881663;28;20492;-77
2022/06/06 19:54:42;;;;;;;0.93;0.75;;;;;;;17.67;88.85;100941.16;20821427;28;20102;-77
2022/06/06 20:04:46;;;;;;;1.45;0.70;;;;;;;17.68;88.53;100947.41;20840294;28;20041;-77
2022/06/06 20:14:56;;;;;;;1.07;0.80;;;;;;;17.60;87.91;100957.94;20834929;28;20045;-77
2022/06/06 20:25:15;;;;;;;1.10;0.70;;;;;;;17.73;88.05;100963.13;20803693;28;20061;-77
2022/06/06 20:35:28;;;;;;;2.22;1.15;;;;;;;17.73;88.11;100958.63;20763641;28;20442;-77
2022/06/06 20:45:37;;;;;;;1.23;0.90;;;;;;;17.73;87.90;100957.75;20748455;28;20510;-77
2022/06/06 20:55:52;;;;;;;0.80;0.80;;;;;;;17.69;87.53;100941.03;20801645;28;20042;-77
2022/06/06 21:05:56;;;;;;;2.08;1.00;;;;;;;17.59;87.64;100911.34;20808438;28;20068;-77
2022/06/06 21:15:58;;;;;;;1.02;0.93;;;;;;;17.70;87.45;100926.56;20871455;28;20045;-78
2022/06/06 21:26:01;;;;;;;0.85;0.85;;;;;;;17.64;87.54;100909.09;20881392;28;20059;-77
2022/06/06 21:36:03;;;;;;;1.73;0.90;;;;;;;17.70;87.40;100921.19;20880741;28;20044;-77
2022/06/06 21:46:06;;;;;;;1.40;0.70;;;;;;;17.63;87.41;100909.22;20852853;28;20052;-77
2022/06/06 21:56:08;;;;;;;1.38;0.82;;;;;;;17.69;87.11;100923.00;20875769;28;20495;-77
2022/06/06 22:06:11;;;;;;;1.98;1.20;;;;;;;17.68;87.19;100912.41;20880923;28;20393;-77
2022/06/06 22:16:13;;;;;;;1.85;0.88;;;;;;;17.62;86.95;100886.00;20875566;28;20170;-77
2022/06/06 22:26:16;;;;;;;1.27;1.10;;;;;;;17.61;86.79;100873.50;20878424;28;20051;-77
2022/06/06 22:36:20;;;;;;;3.08;1.23;;;;;;;17.68;86.79;100885.47;20820643;28;20049;-77
2022/06/06 22:46:22;;;;;;;1.40;1.20;;;;;;;17.67;86.63;100883.75;20836232;28;20132;-77
2022/06/06 22:56:23;;;;;;;1.42;1.15;;;;;;;17.49;86.61;100844.00;20795552;28;20049;-77
2022/06/06 23:06:25;;;;;;;2.25;1.42;;;;;;;17.43;86.22;100828.41;20833343;28;20502;-77
2022/06/06 23:16:27;;;;;;;1.60;1.30;;;;;;;17.61;86.04;100857.38;20875409;28;20489;-77
2022/06/06 23:26:29;;;;;;;1.60;1.45;;;;;;;17.57;86.34;100829.00;20842571;28;20053;-77
2022/06/06 23:36:36;;;;;;;2.63;1.60;;;;;;;17.57;85.91;100823.63;20809028;28;20140;-77
2022/06/06 23:57:15;;;;;;;1.70;1.42;;;;;;;17.64;85.61;100808.63;20785401;28;20045;-77
